Time;durP1;ratioP1;P1;durP2;ratioP2;P2;SDS_P1;SDS_P2;PMS_P1;PMS_P2;Temp;Humidity;BMP_temperature;BMP_pressure;BME280_temperature;BME280_humidity;BME280_pressure;Samples;Min_cycle;Max_cycle;Signal;HPM_P1;HPM_P2
2021/07/09 00:01:57;;;;;;;14.98;7.35;;;;;;;14.62;83.31;102431.28;4976901;28;20534;-69
2021/07/09 00:04:26;;;;;;;15.52;7.22;;;;;;;14.60;84.59;102437.63;4974696;28;20070;-69
2021/07/09 00:06:55;;;;;;;12.68;6.55;;;;;;;14.55;84.22;102432.31;4979914;28;20077;-69
2021/07/09 00:09:23;;;;;;;13.40;6.03;;;;;;;14.52;83.88;102432.41;4976150;28;20088;-69
2021/07/09 00:11:54;;;;;;;15.20;6.93;;;;;;;14.47;83.58;102432.53;4973805;28;20156;-70
2021/07/09 00:14:25;;;;;;;16.33;6.95;;;;;;;14.47;83.97;102427.16;4976037;28;20062;-69
2021/07/09 00:16:52;;;;;;;13.57;6.38;;;;;;;14.42;85.14;102426.38;4977760;28;20121;-69
2021/07/09 00:19:22;;;;;;;15.68;7.00;;;;;;;14.32;84.93;102424.78;4977874;28;20082;-69
2021/07/09 00:21:50;;;;;;;14.57;7.15;;;;;;;14.22;85.33;102413.41;4970221;28;20434;-69
2021/07/09 00:24:18;;;;;;;16.13;6.50;;;;;;;14.18;85.53;102417.94;4976520;28;20071;-69
2021/07/09 00:26:46;;;;;;;16.40;7.55;;;;;;;14.12;86.63;102412.72;4975123;28;20128;-69
2021/07/09 00:29:14;;;;;;;16.35;7.60;;;;;;;14.08;87.17;102418.16;4974830;28;20066;-68
2021/07/09 00:31:42;;;;;;;14.15;6.90;;;;;;;14.13;86.21;102411.81;4976612;28;20108;-68
2021/07/09 00:34:10;;;;;;;14.18;7.47;;;;;;;14.12;86.83;102410.03;4976178;28;20447;-69
2021/07/09 00:36:39;;;;;;;13.52;6.97;;;;;;;14.05;85.95;102405.72;4977209;28;20073;-69
2021/07/09 00:39:08;;;;;;;16.70;7.60;;;;;;;14.04;86.50;102409.31;4974775;28;20464;-69
2021/07/09 00:41:36;;;;;;;17.13;8.52;;;;;;;14.06;86.01;102409.28;4976892;28;20117;-68
2021/07/09 00:44:04;;;;;;;14.82;7.20;;;;;;;14.08;86.96;102402.97;4973679;28;20066;-68
2021/07/09 00:46:34;;;;;;;14.65;7.50;;;;;;;14.09;85.73;102403.84;4974927;28;20074;-69
2021/07/09 00:49:03;;;;;;;15.98;6.97;;;;;;;14.10;85.92;102411.88;4977051;28;20106;-69
2021/07/09 00:51:31;;;;;;;15.45;7.72;;;;;;;14.10;86.23;102414.53;4972529;28;20307;-69
2021/07/09 00:54:00;;;;;;;16.55;7.82;;;;;;;14.10;86.69;102419.91;4976474;28;20137;-70
2021/07/09 00:56:28;;;;;;;17.20;7.68;;;;;;;14.08;86.09;102416.38;4976614;28;20058;-69
2021/07/09 00:58:58;;;;;;;17.20;7.45;;;;;;;14.02;86.28;102412.00;4976627;28;20359;-69
2021/07/09 01:01:25;;;;;;;17.08;7.00;;;;;;;14.00;86.24;102418.34;4976328;28;20125;-69
2021/07/09 01:03:53;;;;;;;22.17;9.00;;;;;;;13.98;85.80;102412.13;4974637;28;20407;-69
2021/07/09 01:06:21;;;;;;;20.83;8.90;;;;;;;13.92;86.80;102413.13;4974618;28;20058;-69
2021/07/09 01:08:49;;;;;;;17.65;8.35;;;;;;;13.87;86.52;102411.47;4978683;28;20093;-69
2021/07/09 01:11:20;;;;;;;16.17;8.10;;;;;;;13.89;86.80;102410.50;4981999;28;20066;-69
2021/07/09 01:13:48;;;;;;;17.58;8.25;;;;;;;13.84;86.90;102409.72;4978184;28;20066;-70
2021/07/09 01:16:16;;;;;;;16.42;7.93;;;;;;;13.79;87.48;102415.19;4976871;28;20058;-69
2021/07/09 01:18:44;;;;;;;19.77;8.35;;;;;;;13.76;86.65;102411.69;4973540;28;20332;-69
2021/07/09 01:21:11;;;;;;;19.60;8.98;;;;;;;13.76;87.66;102415.25;4976810;28;20637;-68
2021/07/09 01:23:42;;;;;;;21.50;9.27;;;;;;;13.70;87.92;102412.69;4973302;28;20141;-68
2021/07/09 01:26:12;;;;;;;18.73;8.93;;;;;;;13.66;88.25;102415.47;4978641;28;20174;-68
2021/07/09 01:28:40;;;;;;;20.95;8.80;;;;;;;13.69;88.78;102410.03;4976740;28;20070;-68
2021/07/09 01:31:09;;;;;;;18.42;9.15;;;;;;;13.61;88.43;102403.03;4972764;28;20088;-68
2021/07/09 01:33:37;;;;;;;19.85;9.60;;;;;;;13.66;88.97;102407.44;4975278;28;20512;-68
2021/07/09 01:36:06;;;;;;;21.55;8.95;;;;;;;13.66;89.11;102408.31;4969272;28;20108;-70
2021/07/09 01:38:33;;;;;;;21.17;9.43;;;;;;;13.70;88.43;102411.81;4974761;28;20751;-67
2021/07/09 01:41:01;;;;;;;22.23;9.05;;;;;;;13.75;88.90;102416.16;4975285;28;20067;-68
2021/07/09 01:43:31;;;;;;;21.73;9.30;;;;;;;13.73;88.58;102411.75;4973332;28;20073;-68
2021/07/09 01:45:59;;;;;;;20.45;9.63;;;;;;;13.70;88.97;102411.81;4981791;28;20091;-67
2021/07/09 01:48:27;;;;;;;24.17;9.48;;;;;;;13.69;88.91;102412.72;4972925;28;20094;-68
2021/07/09 01:50:55;;;;;;;22.45;9.18;;;;;;;13.68;89.50;102419.88;4976327;28;20117;-68
2021/07/09 01:53:22;;;;;;;21.77;9.18;;;;;;;13.63;88.96;102406.56;4974621;28;20086;-69
2021/07/09 01:55:50;;;;;;;23.25;9.88;;;;;;;13.62;88.81;102410.19;4977226;28;20480;-68
2021/07/09 01:58:18;;;;;;;23.00;9.48;;;;;;;13.61;88.54;102413.75;4982269;28;20094;-68
2021/07/09 02:00:48;;;;;;;25.33;11.13;;;;;;;13.60;89.66;102412.00;4980179;28;20062;-69
2021/07/09 02:03:16;;;;;;;20.27;9.73;;;;;;;13.61;89.00;102405.72;4979331;28;20198;-67
2021/07/09 02:05:43;;;;;;;21.15;8.75;;;;;;;13.58;89.15;102402.22;4980722;28;20331;-69
2021/07/09 02:08:11;;;;;;;21.27;9.23;;;;;;;13.50;89.15;102404.16;4978135;28;20070;-68
2021/07/09 02:10:42;;;;;;;23.33;10.02;;;;;;;13.43;88.30;102406.97;4981546;28;20058;-68
2021/07/09 02:13:10;;;;;;;20.15;8.82;;;;;;;13.50;89.20;102418.47;4980673;28;20184;-70
2021/07/09 02:15:40;;;;;;;21.17;9.50;;;;;;;13.53;90.33;102409.47;4977027;28;20097;-68
2021/07/09 02:18:09;;;;;;;23.48;9.68;;;;;;;13.45;89.11;102410.50;4985433;28;20417;-67
2021/07/09 02:20:38;;;;;;;23.33;10.68;;;;;;;13.36;90.09;102404.41;4976774;28;20068;-69
2021/07/09 02:23:08;;;;;;;24.02;9.70;;;;;;;13.32;90.24;102402.72;4980366;28;20073;-69
2021/07/09 02:25:37;;;;;;;23.05;10.45;;;;;;;13.36;90.55;102399.94;4977645;28;20438;-67
2021/07/09 02:28:06;;;;;;;21.08;8.90;;;;;;;13.34;90.92;102400.91;4979109;28;20050;-67
2021/07/09 02:30:35;;;;;;;22.58;10.25;;;;;;;13.37;90.79;102393.66;4978343;28;20094;-67
2021/07/09 02:33:03;;;;;;;19.50;8.90;;;;;;;13.38;90.75;102398.13;4976395;28;20043;-67
2021/07/09 02:35:35;;;;;;;19.13;10.00;;;;;;;13.38;91.06;102391.88;4979185;28;20474;-67
2021/07/09 02:38:03;;;;;;;21.20;10.18;;;;;;;13.31;90.65;102396.44;4978657;28;20112;-67
2021/07/09 02:40:31;;;;;;;25.45;10.18;;;;;;;13.28;90.48;102401.88;4976681;28;20066;-69
2021/07/09 02:43:01;;;;;;;21.45;9.38;;;;;;;13.27;90.91;102406.31;4980322;28;20062;-68
2021/07/09 02:45:29;;;;;;;25.40;11.13;;;;;;;13.33;91.04;102397.34;4974452;28;20074;-68
2021/07/09 02:48:15;;;;;;;18.75;9.75;;;;;;;13.30;90.98;102402.72;4983933;28;20062;-68
2021/07/09 02:50:44;;;;;;;19.13;9.18;;;;;;;13.31;90.81;102395.56;4979600;28;20058;-68
2021/07/09 02:53:12;;;;;;;20.65;8.68;;;;;;;13.29;90.86;102400.94;4976407;28;20059;-68
2021/07/09 02:55:40;;;;;;;19.77;8.32;;;;;;;13.29;90.45;102402.75;4980824;28;20247;-71
2021/07/09 02:58:08;;;;;;;22.35;10.15;;;;;;;13.29;90.96;102398.25;4974119;28;20102;-67
2021/07/09 03:00:35;;;;;;;19.27;8.63;;;;;;;13.31;91.10;102404.47;4977961;28;20889;-67
2021/07/09 03:03:04;;;;;;;18.50;8.85;;;;;;;13.27;92.35;102398.28;4977357;28;20609;-69
2021/07/09 03:05:33;;;;;;;18.90;8.73;;;;;;;13.23;90.97;102387.66;4975590;28;20417;-68
2021/07/09 03:08:03;;;;;;;21.67;8.65;;;;;;;13.21;91.26;102393.06;4981402;28;20058;-68
2021/07/09 03:10:31;;;;;;;19.27;8.88;;;;;;;13.21;91.86;102397.50;4977131;28;20050;-68
2021/07/09 03:12:58;;;;;;;21.73;8.80;;;;;;;13.23;91.91;102398.38;4979086;28;20070;-68
2021/07/09 03:15:26;;;;;;;18.85;9.43;;;;;;;13.18;91.66;102402.94;4979978;28;20353;-69
2021/07/09 03:17:54;;;;;;;21.45;9.60;;;;;;;13.19;92.39;102402.91;4975015;28;20097;-69
2021/07/09 03:20:21;;;;;;;21.10;8.80;;;;;;;13.12;92.26;102405.72;4979296;28;20487;-69
2021/07/09 03:22:49;;;;;;;20.30;9.82;;;;;;;13.13;91.93;102397.66;4975068;28;20379;-69
2021/07/09 03:25:18;;;;;;;19.73;8.70;;;;;;;13.11;91.64;102394.13;4979113;28;20081;-70
2021/07/09 03:27:46;;;;;;;21.60;9.77;;;;;;;13.08;91.74;102396.88;4979047;28;20066;-69
2021/07/09 03:30:14;;;;;;;20.48;9.85;;;;;;;13.08;92.11;102386.16;4974771;28;20070;-69
2021/07/09 03:32:42;;;;;;;21.30;8.70;;;;;;;13.04;91.89;102396.03;4978242;28;20094;-69
2021/07/09 03:35:10;;;;;;;18.25;9.45;;;;;;;13.01;92.13;102393.41;4978563;28;20062;-70
2021/07/09 03:37:39;;;;;;;18.83;8.77;;;;;;;13.03;92.36;102396.94;4976975;28;20046;-70
2021/07/09 03:40:09;;;;;;;22.42;9.43;;;;;;;13.04;92.64;102390.69;4978631;28;20062;-69
2021/07/09 03:42:38;;;;;;;21.02;10.15;;;;;;;13.01;92.80;102389.84;4975319;28;20062;-69
2021/07/09 03:45:08;;;;;;;23.05;9.35;;;;;;;13.01;93.28;102388.03;4978364;28;20108;-69
2021/07/09 03:47:35;;;;;;;18.60;9.07;;;;;;;13.01;92.66;102390.72;4976400;28;20121;-69
2021/07/09 03:50:04;;;;;;;20.02;9.13;;;;;;;12.99;92.72;102392.56;4976926;28;20070;-69
2021/07/09 03:52:32;;;;;;;21.67;11.35;;;;;;;12.98;92.20;102388.09;4980947;28;20062;-69
2021/07/09 03:55:00;;;;;;;21.48;10.13;;;;;;;12.99;92.48;102400.59;4973025;28;20097;-69
2021/07/09 03:57:27;;;;;;;20.42;9.35;;;;;;;13.01;92.20;102398.75;4977391;28;20058;-69
2021/07/09 03:59:56;;;;;;;22.08;8.85;;;;;;;13.01;91.63;102403.25;4977965;28;20067;-69
2021/07/09 04:02:24;;;;;;;20.80;8.93;;;;;;;13.01;91.83;102400.56;4975557;28;20071;-70
2021/07/09 04:04:52;;;;;;;21.42;8.93;;;;;;;13.05;92.38;102404.94;4979371;28;20464;-69
2021/07/09 04:07:20;;;;;;;24.80;10.00;;;;;;;13.06;93.29;102404.06;4971609;28;20382;-69
2021/07/09 04:09:47;;;;;;;18.08;8.45;;;;;;;13.06;92.79;102404.06;4975640;28;20066;-70
2021/07/09 04:12:15;;;;;;;18.40;8.43;;;;;;;13.08;92.58;102397.75;4978047;28;20682;-70
2021/07/09 04:14:43;;;;;;;21.30;8.98;;;;;;;13.10;92.81;102402.19;4972591;28;20071;-70
2021/07/09 04:17:12;;;;;;;19.23;8.95;;;;;;;13.18;93.74;102413.66;4981298;28;20062;-71
2021/07/09 04:19:40;;;;;;;18.90;9.45;;;;;;;13.23;93.23;102411.78;4975579;28;20050;-69
2021/07/09 04:22:08;;;;;;;20.20;9.30;;;;;;;13.26;92.64;102417.97;4977526;28;20389;-69
2021/07/09 04:24:36;;;;;;;20.50;10.30;;;;;;;13.29;92.66;102402.75;4980060;28;20135;-70
2021/07/09 04:27:04;;;;;;;19.75;9.75;;;;;;;13.24;92.96;102413.53;4976954;28;20077;-70
2021/07/09 04:29:31;;;;;;;21.80;10.35;;;;;;;13.27;92.50;102410.81;4981723;28;20066;-70
2021/07/09 04:31:59;;;;;;;20.85;9.90;;;;;;;13.31;92.45;102409.81;4976366;28;20089;-70
2021/07/09 04:34:28;;;;;;;22.05;10.35;;;;;;;13.36;94.05;102404.41;4974865;28;20241;-68
2021/07/09 04:36:56;;;;;;;20.27;9.18;;;;;;;13.43;93.11;102412.34;4979744;28;20446;-68
2021/07/09 04:39:24;;;;;;;24.40;11.98;;;;;;;13.55;93.73;102410.31;4976195;28;20366;-68
2021/07/09 04:41:52;;;;;;;23.55;10.88;;;;;;;13.63;94.11;102408.38;4975840;28;20432;-68
2021/07/09 04:44:20;;;;;;;22.48;9.10;;;;;;;13.76;93.63;102412.56;4981136;28;20100;-68
2021/07/09 04:46:48;;;;;;;21.05;10.85;;;;;;;13.87;93.70;102406.97;4974127;28;20066;-68
2021/07/09 04:49:16;;;;;;;21.83;10.13;;;;;;;14.00;93.74;102407.63;4979824;28;20369;-68
2021/07/09 04:51:45;;;;;;;26.98;10.18;;;;;;;14.07;93.03;102406.56;4974801;28;20071;-68
2021/07/09 04:54:12;;;;;;;19.83;9.98;;;;;;;14.10;92.51;102408.31;4976265;28;20058;-69
2021/07/09 04:56:40;;;;;;;19.75;9.77;;;;;;;14.23;91.37;102415.16;4977197;28;20121;-68
2021/07/09 04:59:08;;;;;;;21.55;9.75;;;;;;;14.34;91.94;102417.59;4976415;28;20121;-68
2021/07/09 05:01:36;;;;;;;19.65;9.25;;;;;;;14.51;91.73;102417.22;4975707;28;20469;-69
2021/07/09 05:04:05;;;;;;;23.05;10.77;;;;;;;14.75;91.39;102419.34;4977131;28;20142;-68
2021/07/09 05:06:33;;;;;;;20.92;9.48;;;;;;;15.02;90.62;102418.69;4974538;28;20074;-70
2021/07/09 05:09:03;;;;;;;21.48;9.55;;;;;;;15.26;89.87;102420.72;4980206;28;20066;-70
2021/07/09 05:11:31;;;;;;;20.80;9.95;;;;;;;15.46;89.25;102419.28;4973503;28;20304;-70
2021/07/09 05:13:59;;;;;;;24.65;10.82;;;;;;;15.73;88.36;102409.56;4977172;28;20576;-70
2021/07/09 05:16:27;;;;;;;25.13;10.85;;;;;;;15.97;87.54;102416.09;4975267;28;20124;-70
2021/07/09 05:18:56;;;;;;;28.35;11.60;;;;;;;16.18;86.67;102417.25;4974413;28;20157;-70
2021/07/09 05:21:25;;;;;;;26.55;11.63;;;;;;;16.45;86.58;102420.00;4973112;28;20114;-70
2021/07/09 05:23:53;;;;;;;26.42;11.73;;;;;;;16.52;86.09;102423.41;4976455;28;20046;-70
2021/07/09 05:26:23;;;;;;;26.20;11.20;;;;;;;16.69;85.57;102417.47;4977494;28;20168;-70
2021/07/09 05:28:50;;;;;;;27.50;12.00;;;;;;;16.89;84.52;102420.41;4975787;28;20067;-70
2021/07/09 05:31:18;;;;;;;28.02;12.25;;;;;;;17.07;84.48;102418.88;4983523;28;20053;-71
2021/07/09 05:33:46;;;;;;;27.98;12.02;;;;;;;17.40;83.41;102415.97;4982810;28;20093;-71
2021/07/09 05:36:14;;;;;;;29.75;13.90;;;;;;;17.47;82.38;102425.59;4980350;28;20307;-71
2021/07/09 05:38:41;;;;;;;24.10;11.40;;;;;;;17.65;81.32;102426.72;4982367;28;20070;-70
2021/07/09 05:41:09;;;;;;;27.23;12.27;;;;;;;17.72;81.02;102424.69;4982507;28;20105;-69
2021/07/09 05:43:38;;;;;;;28.17;12.20;;;;;;;17.80;81.03;102424.41;4982685;28;20058;-69
2021/07/09 05:46:06;;;;;;;27.95;12.23;;;;;;;18.11;80.88;102424.16;4980666;28;20398;-69
2021/07/09 05:48:34;;;;;;;26.95;13.20;;;;;;;18.29;80.36;102418.03;4981317;28;20469;-69
2021/07/09 05:51:02;;;;;;;28.75;12.70;;;;;;;18.32;79.32;102416.13;4981938;28;20070;-69
2021/07/09 05:53:31;;;;;;;26.38;12.95;;;;;;;18.26;78.91;102415.44;4976529;28;20338;-69
2021/07/09 05:55:59;;;;;;;29.65;13.10;;;;;;;18.15;78.98;102417.69;4982283;28;20697;-69
2021/07/09 05:58:27;;;;;;;27.77;12.43;;;;;;;17.92;79.77;102427.53;4980689;28;20066;-68
2021/07/09 06:00:56;;;;;;;27.90;11.82;;;;;;;18.05;80.22;102424.41;4980237;28;20389;-69
2021/07/09 06:03:23;;;;;;;27.27;12.18;;;;;;;18.14;80.09;102421.34;4980605;28;20873;-69
2021/07/09 06:05:51;;;;;;;21.83;11.10;;;;;;;18.35;79.08;102416.03;4978030;28;20046;-69
2021/07/09 06:08:19;;;;;;;27.73;12.40;;;;;;;18.40;78.09;102417.59;4981884;28;20636;-70
2021/07/09 06:10:46;;;;;;;29.98;14.38;;;;;;;18.60;77.13;102427.59;4983862;28;20640;-70
2021/07/09 06:13:14;;;;;;;38.78;17.23;;;;;;;18.31;77.22;102417.09;4980583;28;20066;-69
2021/07/09 06:15:42;;;;;;;38.00;16.60;;;;;;;18.68;77.31;102416.47;4978572;28;20609;-70
2021/07/09 06:18:21;;;;;;;31.27;16.40;;;;;;;18.67;75.95;102412.00;4977453;28;20487;-69
2021/07/09 06:20:49;;;;;;;31.35;15.73;;;;;;;19.01;75.22;102411.50;4976825;28;20086;-69
2021/07/09 06:23:17;;;;;;;31.98;15.63;;;;;;;19.33;73.90;102414.63;4976196;28;20374;-69
2021/07/09 06:25:45;;;;;;;37.53;16.20;;;;;;;19.58;73.19;102410.81;4977669;28;20058;-69
2021/07/09 06:28:13;;;;;;;29.85;14.23;;;;;;;19.38;72.72;102409.91;4981108;28;20696;-69
2021/07/09 06:30:40;;;;;;;26.52;13.80;;;;;;;19.54;73.90;102404.66;4981083;28;20461;-70
2021/07/09 06:33:09;;;;;;;27.05;12.65;;;;;;;19.29;73.49;102409.41;4980004;28;20070;-69
2021/07/09 06:35:38;;;;;;;32.00;13.00;;;;;;;19.58;73.39;102402.69;4980747;28;20172;-69
2021/07/09 06:38:07;;;;;;;26.27;12.23;;;;;;;20.00;71.87;102409.81;4979494;28;20335;-69
2021/07/09 06:40:35;;;;;;;26.50;13.43;;;;;;;20.18;70.34;102408.09;4977501;28;20185;-69
2021/07/09 06:43:03;;;;;;;27.13;13.10;;;;;;;20.01;70.48;102410.72;4975144;28;20080;-69
2021/07/09 06:45:31;;;;;;;26.95;13.82;;;;;;;20.48;69.05;102396.69;4975364;28;20070;-69
2021/07/09 06:47:59;;;;;;;25.52;12.85;;;;;;;20.68;69.45;102398.44;4977006;28;20062;-68
2021/07/09 06:50:27;;;;;;;31.92;13.80;;;;;;;20.74;68.51;102399.97;4973576;28;20457;-68
2021/07/09 06:52:56;;;;;;;28.13;13.60;;;;;;;20.60;68.06;102400.63;4976375;28;20417;-68
2021/07/09 06:55:24;;;;;;;23.73;11.10;;;;;;;20.98;66.95;102393.31;4974205;28;20107;-68
2021/07/09 06:57:52;;;;;;;26.08;12.68;;;;;;;21.04;66.15;102395.72;4973800;28;20154;-68
2021/07/09 07:00:20;;;;;;;27.52;13.00;;;;;;;21.37;65.74;102396.75;4978162;28;20086;-69
2021/07/09 07:02:49;;;;;;;23.98;12.68;;;;;;;21.71;64.98;102386.78;4972430;28;20113;-68
2021/07/09 07:05:17;;;;;;;23.52;12.05;;;;;;;21.53;65.03;102392.25;4976100;28;20148;-69
2021/07/09 07:07:45;;;;;;;24.27;12.00;;;;;;;21.06;65.20;102407.38;4974648;28;20069;-69
2021/07/09 07:10:15;;;;;;;20.90;11.27;;;;;;;21.41;64.79;102401.91;4975306;28;20062;-69
2021/07/09 07:12:45;;;;;;;27.27;12.55;;;;;;;21.52;64.03;102406.81;4973830;28;20046;-68
2021/07/09 07:15:13;;;;;;;25.23;12.23;;;;;;;21.88;64.04;102400.31;4971725;28;20069;-69
2021/07/09 07:17:41;;;;;;;22.10;11.15;;;;;;;21.56;63.24;102394.81;4977632;28;20098;-68
2021/07/09 07:20:10;;;;;;;21.40;11.57;;;;;;;21.82;63.30;102389.78;4980119;28;20141;-69
2021/07/09 07:22:38;;;;;;;25.23;11.73;;;;;;;21.37;64.24;102397.59;4974538;28;20070;-69
2021/07/09 07:25:07;;;;;;;28.33;12.60;;;;;;;20.83;65.81;102396.81;4978762;28;20468;-69
2021/07/09 07:27:36;;;;;;;27.73;11.60;;;;;;;21.37;65.11;102402.16;4979151;28;20054;-73
2021/07/09 07:30:04;;;;;;;24.88;12.05;;;;;;;21.54;63.20;102393.13;4975962;28;20129;-71
2021/07/09 07:32:33;;;;;;;19.48;10.93;;;;;;;22.67;61.66;102395.88;4976538;28;20062;-71
2021/07/09 07:35:00;;;;;;;21.55;11.63;;;;;;;22.16;60.79;102401.50;4973724;28;20059;-72
2021/07/09 07:37:28;;;;;;;21.52;12.10;;;;;;;22.42;60.72;102396.44;4977034;28;20106;-72
2021/07/09 07:39:57;;;;;;;19.13;10.50;;;;;;;21.71;62.01;102400.34;4978422;28;20067;-72
2021/07/09 07:42:25;;;;;;;22.25;11.05;;;;;;;21.72;62.17;102396.69;4974973;28;20071;-71
2021/07/09 07:44:54;;;;;;;21.70;10.05;;;;;;;21.86;61.50;102404.06;4980981;28;20067;-71
2021/07/09 07:47:22;;;;;;;19.85;10.90;;;;;;;21.11;62.79;102395.38;4974770;28;20096;-70
2021/07/09 07:49:50;;;;;;;17.17;9.45;;;;;;;22.41;60.78;102400.09;4979126;28;20066;-71
2021/07/09 07:52:18;;;;;;;23.13;10.98;;;;;;;22.72;59.47;102391.91;4975771;28;20045;-70
2021/07/09 07:54:46;;;;;;;20.63;10.15;;;;;;;22.60;58.98;102403.53;4974439;28;20350;-70
2021/07/09 07:57:13;;;;;;;21.58;10.82;;;;;;;23.05;58.16;102401.75;4979755;28;20094;-71
2021/07/09 07:59:45;;;;;;;19.45;10.88;;;;;;;23.40;56.41;102404.22;4969477;28;20062;-71
2021/07/09 08:02:14;;;;;;;21.10;11.25;;;;;;;22.90;57.10;102408.13;4975744;28;20076;-71
2021/07/09 08:04:42;;;;;;;21.65;10.38;;;;;;;23.78;55.91;102402.78;4972773;28;20153;-71
2021/07/09 08:07:10;;;;;;;18.00;9.82;;;;;;;24.03;54.62;102402.97;4972288;28;20461;-71
2021/07/09 08:09:38;;;;;;;18.95;10.10;;;;;;;24.07;53.98;102405.53;4972650;28;20085;-71
2021/07/09 08:12:07;;;;;;;20.35;11.05;;;;;;;24.18;53.47;102402.97;4973760;28;20445;-71
2021/07/09 08:14:35;;;;;;;22.80;11.68;;;;;;;23.76;54.08;102404.72;4974456;28;20395;-71
2021/07/09 08:17:03;;;;;;;21.38;12.68;;;;;;;24.35;52.57;102394.56;4973946;28;20390;-71
2021/07/09 08:19:33;;;;;;;19.00;10.93;;;;;;;25.24;52.22;102386.78;4970298;28;20165;-71
2021/07/09 08:22:01;;;;;;;21.73;12.98;;;;;;;24.73;51.91;102396.59;4973418;28;20065;-71
2021/07/09 08:24:29;;;;;;;22.52;13.50;;;;;;;23.90;52.53;102395.69;4970702;28;20444;-71
2021/07/09 08:26:57;;;;;;;21.35;13.05;;;;;;;24.38;51.84;102390.72;4974044;28;20125;-71
2021/07/09 08:29:25;;;;;;;22.40;13.70;;;;;;;24.15;52.61;102395.00;4973538;28;20073;-71
2021/07/09 08:31:53;;;;;;;21.30;14.00;;;;;;;23.45;54.27;102401.22;4971518;28;20488;-70
2021/07/09 08:34:21;;;;;;;24.27;14.13;;;;;;;24.30;53.52;102391.25;4972621;28;20062;-71
2021/07/09 08:36:50;;;;;;;25.38;13.07;;;;;;;24.12;51.74;102389.75;4969087;28;20105;-70
2021/07/09 08:39:18;;;;;;;21.00;12.23;;;;;;;24.14;53.10;102395.97;4973832;28;20066;-71
2021/07/09 08:41:48;;;;;;;22.05;12.55;;;;;;;24.53;51.15;102394.31;4973116;28;20421;-71
2021/07/09 08:44:16;;;;;;;19.55;11.95;;;;;;;24.59;51.38;102393.94;4972685;28;20070;-71
2021/07/09 08:46:44;;;;;;;20.52;11.48;;;;;;;24.60;51.28;102393.84;4974818;28;20117;-71
2021/07/09 08:49:15;;;;;;;17.48;9.98;;;;;;;24.87;51.44;102389.31;4973461;28;20084;-71
2021/07/09 08:51:44;;;;;;;17.30;10.18;;;;;;;24.75;50.21;102380.13;4971554;28;20080;-72
2021/07/09 08:54:15;;;;;;;21.35;11.48;;;;;;;24.50;50.22;102381.75;4976975;28;20062;-71
2021/07/09 08:56:43;;;;;;;19.33;9.95;;;;;;;24.53;50.67;102380.66;4974528;28;20377;-71
2021/07/09 08:59:11;;;;;;;20.33;11.23;;;;;;;24.63;50.17;102379.09;4975708;28;20433;-71
2021/07/09 09:01:50;;;;;;;16.40;10.05;;;;;;;24.68;50.56;102376.94;4976321;28;20149;-71
2021/07/09 09:04:25;;;;;;;18.13;10.40;;;;;;;25.43;49.35;102376.31;4974331;28;20073;-71
2021/07/09 09:07:04;;;;;;;18.30;10.10;;;;;;;24.89;51.03;102379.16;4974161;28;20446;-71
2021/07/09 09:09:34;;;;;;;18.30;10.98;;;;;;;23.78;52.55;102383.69;4973699;28;20433;-71
2021/07/09 09:12:08;;;;;;;17.42;9.95;;;;;;;23.29;54.59;102384.91;4975304;28;20062;-71
2021/07/09 09:14:38;;;;;;;22.80;11.18;;;;;;;24.01;52.34;102380.41;4975020;28;20088;-71
2021/07/09 09:17:26;;;;;;;17.58;10.77;;;;;;;24.49;49.70;102376.41;4975630;28;20066;-71
2021/07/09 09:20:11;;;;;;;16.25;9.73;;;;;;;25.38;48.51;102381.22;4976393;28;20507;-71
2021/07/09 09:22:54;;;;;;;18.42;10.15;;;;;;;25.81;48.07;102374.53;4971753;28;20066;-71
2021/07/09 09:25:25;;;;;;;;;;;;;;;25.62;46.07;102373.13;4978894;28;20145;-71
2021/07/09 09:28:06;;;;;;;18.77;10.27;;;;;;;24.85;49.09;102381.25;4977175;28;20234;-71
2021/07/09 09:30:36;;;;;;;19.02;9.75;;;;;;;24.94;49.64;102377.00;4978726;28;20078;-71
2021/07/09 09:33:05;;;;;;;18.25;9.48;;;;;;;25.21;49.47;102384.25;4974303;28;20062;-71
2021/07/09 09:35:37;;;;;;;20.05;10.02;;;;;;;25.74;48.55;102371.38;4973791;28;20190;-72
2021/07/09 09:38:07;;;;;;;15.90;9.13;;;;;;;24.66;50.10;102380.75;4972745;28;20058;-71
2021/07/09 09:40:37;;;;;;;16.75;9.32;;;;;;;25.32;48.95;102371.63;4967733;28;20661;-73
2021/07/09 09:43:07;;;;;;;13.75;8.90;;;;;;;25.86;47.34;102372.34;4969921;28;20377;-71
2021/07/09 09:45:36;;;;;;;18.63;9.95;;;;;;;26.26;46.21;102369.44;4975753;28;20201;-72
2021/07/09 09:48:06;;;;;;;17.88;10.27;;;;;;;24.86;49.51;102374.81;4970003;28;20125;-72
2021/07/09 09:50:42;;;;;;;14.70;8.93;;;;;;;24.07;49.42;102383.72;4977087;28;20118;-72
2021/07/09 09:53:10;;;;;;;14.68;8.38;;;;;;;24.38;48.26;102378.00;4973018;28;20054;-69
2021/07/09 09:55:41;;;;;;;14.35;8.32;;;;;;;24.75;48.18;102374.66;4973906;28;20086;-69
2021/07/09 09:58:12;;;;;;;14.30;8.98;;;;;;;24.31;49.39;102375.75;4977188;28;20104;-71
2021/07/09 10:00:40;;;;;;;15.65;8.15;;;;;;;24.79;49.04;102379.81;4973830;28;20065;-69
2021/07/09 10:03:18;;;;;;;15.85;8.48;;;;;;;23.48;50.58;102371.94;4972956;28;20074;-69
2021/07/09 10:05:48;;;;;;;14.95;8.88;;;;;;;23.78;50.92;102379.13;4972516;28;20465;-69
2021/07/09 10:08:17;;;;;;;16.40;8.82;;;;;;;23.56;51.14;102371.44;4969621;28;20070;-69
2021/07/09 10:10:47;;;;;;;16.10;8.10;;;;;;;23.57;50.61;102373.19;4978715;28;20063;-69
2021/07/09 10:13:17;;;;;;;17.20;8.88;;;;;;;23.38;51.69;102376.19;4968332;28;20173;-72
2021/07/09 10:15:47;;;;;;;30.30;11.55;;;;;;;23.33;53.15;102375.59;4977153;28;20100;-71
2021/07/09 10:18:16;;;;;;;18.23;9.40;;;;;;;23.22;52.61;102378.09;4975498;28;20145;-71
2021/07/09 10:20:46;;;;;;;20.00;10.63;;;;;;;22.79;54.40;102377.97;4977897;28;20074;-71
2021/07/09 10:23:16;;;;;;;19.58;10.75;;;;;;;22.54;54.43;102373.97;4977883;28;20140;-70
2021/07/09 10:25:48;;;;;;;20.40;11.30;;;;;;;23.05;53.97;102370.94;4972817;28;20077;-70
2021/07/09 10:28:20;;;;;;;19.35;10.45;;;;;;;22.82;53.80;102366.91;4977982;28;20062;-71
2021/07/09 10:30:49;;;;;;;17.65;10.55;;;;;;;22.76;54.03;102365.41;4973590;28;20063;-71
2021/07/09 10:33:38;;;;;;;20.60;11.18;;;;;;;22.76;54.23;102373.56;4973605;28;20073;-73
2021/07/09 10:36:07;;;;;;;20.52;12.40;;;;;;;23.44;53.53;102359.47;4970462;28;20101;-71
2021/07/09 10:38:37;;;;;;;21.20;11.45;;;;;;;23.06;52.74;102368.16;4974688;28;20140;-71
2021/07/09 10:41:16;;;;;;;20.83;13.45;;;;;;;22.49;53.78;102376.06;4978022;28;20134;-72
2021/07/09 10:43:44;;;;;;;20.48;12.82;;;;;;;22.66;54.17;102372.34;4977659;28;20054;-72
2021/07/09 10:46:11;;;;;;;21.02;11.98;;;;;;;22.96;53.21;102360.63;4975500;28;20381;-72
2021/07/09 10:48:39;;;;;;;21.30;12.32;;;;;;;23.27;52.76;102363.22;4977668;28;20133;-70
2021/07/09 10:51:12;;;;;;;18.85;11.73;;;;;;;23.59;52.51;102367.66;4973909;28;20050;-72
2021/07/09 10:53:41;;;;;;;19.17;11.07;;;;;;;24.17;49.87;102358.47;4979777;28;20066;-70
2021/07/09 10:56:12;;;;;;;19.95;11.30;;;;;;;23.23;52.07;102361.69;4978532;28;20534;-70
2021/07/09 10:58:44;;;;;;;22.05;13.25;;;;;;;23.04;52.71;102366.50;4974985;28;20144;-69
2021/07/09 11:01:28;;;;;;;21.77;12.05;;;;;;;22.98;53.35;102370.44;4975294;28;20066;-71
2021/07/09 11:04:11;;;;;;;21.02;12.50;;;;;;;23.84;51.31;102358.81;4976799;28;20440;-71
2021/07/09 11:06:44;;;;;;;20.05;13.05;;;;;;;23.26;53.60;102363.34;4979436;28;20066;-71
2021/07/09 11:09:17;;;;;;;24.38;15.68;;;;;;;23.41;53.67;102362.41;4979974;28;20050;-71
2021/07/09 11:11:50;;;;;;;;;;;;;;;23.35;53.55;102354.59;4981060;28;20330;-68
2021/07/09 11:14:34;;;;;;;24.30;14.82;;;;;;;23.32;54.22;102365.69;4974036;28;19926;-70
2021/07/09 11:17:16;;;;;;;25.40;14.68;;;;;;;23.26;53.49;102361.50;4974201;28;20066;-70
2021/07/09 11:19:50;;;;;;;18.95;13.77;;;;;;;23.05;54.46;102369.09;4979107;28;20067;-70
2021/07/09 11:22:22;;;;;;;20.38;13.27;;;;;;;22.85;54.59;102356.72;4976577;28;20063;-70
2021/07/09 11:24:56;;;;;;;23.38;13.13;;;;;;;23.01;54.68;102363.94;4974644;28;20067;-71